createdAt,value
2023-03-22T00:02:34.991Z,6.80
2023-03-22T00:05:22.947Z,5.78
2023-03-22T00:08:11.064Z,6.00
2023-03-22T00:11:02.107Z,6.25
2023-03-22T00:13:52.575Z,5.85
2023-03-22T00:16:40.897Z,6.70
2023-03-22T00:19:29.137Z,6.10
2023-03-22T00:22:16.844Z,6.50
2023-03-22T00:25:05.924Z,6.45
2023-03-22T00:27:54.111Z,6.50
2023-03-22T00:30:44.133Z,6.47
2023-03-22T00:33:32.612Z,6.50
2023-03-22T00:36:20.427Z,6.20
2023-03-22T00:39:08.749Z,6.32
2023-03-22T00:41:56.450Z,6.70
2023-03-22T00:44:44.375Z,6.25
2023-03-22T00:47:34.133Z,6.93
2023-03-22T00:50:22.306Z,6.57
2023-03-22T00:53:10.412Z,6.80
2023-03-22T00:55:58.353Z,6.43
2023-03-22T00:58:46.235Z,6.78
2023-03-22T01:01:34.067Z,6.47
2023-03-22T01:04:25.936Z,6.82
2023-03-22T01:07:18.149Z,6.63
2023-03-22T01:10:06.943Z,6.80
2023-03-22T01:13:04.601Z,6.60
2023-03-22T01:15:53.251Z,6.15
2023-03-22T01:18:41.139Z,5.40
2023-03-22T01:21:30.966Z,6.32
2023-03-22T01:24:20.722Z,5.85
2023-03-22T01:27:08.691Z,5.70
2023-03-22T01:29:56.912Z,6.13
2023-03-22T01:32:44.866Z,6.57
2023-03-22T01:35:33.253Z,5.70
2023-03-22T01:38:22.920Z,5.07
2023-03-22T01:41:10.859Z,5.03
2023-03-22T01:44:16.802Z,4.78
2023-03-22T01:47:04.996Z,5.68
2023-03-22T01:49:52.929Z,5.53
2023-03-22T01:52:41.680Z,6.20
2023-03-22T01:55:30.979Z,5.93
2023-03-22T01:58:19.167Z,5.65
2023-03-22T02:01:09.925Z,5.38
2023-03-22T02:04:03.836Z,5.38
2023-03-22T02:06:54.819Z,4.93
2023-03-22T02:09:43.505Z,5.28
2023-03-22T02:12:45.245Z,4.78
2023-03-22T02:15:38.365Z,4.20
2023-03-22T02:18:49.663Z,4.97
2023-03-22T02:22:11.843Z,4.40
2023-03-22T02:25:30.338Z,6.25
2023-03-22T02:28:33.468Z,5.45
2023-03-22T02:35:06.803Z,4.40
2023-03-22T02:38:26.652Z,5.00
2023-03-22T02:41:26.287Z,4.63
2023-03-22T02:44:24.981Z,4.53
2023-03-22T02:47:23.220Z,4.68
2023-03-22T02:50:16.657Z,5.13
2023-03-22T02:53:11.105Z,4.80
2023-03-22T02:56:02.129Z,4.38
2023-03-22T02:58:54.715Z,4.72
2023-03-22T03:01:47.118Z,5.20
2023-03-22T03:04:38.985Z,4.82
2023-03-22T03:07:31.328Z,4.43
2023-03-22T03:10:20.261Z,5.23
2023-03-22T03:13:11.759Z,4.55
2023-03-22T03:16:02.840Z,4.70
2023-03-22T03:18:57.672Z,4.78
2023-03-22T03:21:54.054Z,5.22
2023-03-22T03:24:49.125Z,4.82
2023-03-22T03:27:40.436Z,4.78
2023-03-22T03:30:33.596Z,4.55
2023-03-22T03:36:15.418Z,4.53
2023-03-22T03:39:05.380Z,4.97
2023-03-22T03:41:56.257Z,4.30
2023-03-22T03:44:45.500Z,4.68
2023-03-22T03:47:35.861Z,4.82
2023-03-22T03:50:26.549Z,4.68
2023-03-22T03:53:14.286Z,4.85
2023-03-22T03:56:02.317Z,4.72
2023-03-22T03:58:50.316Z,4.35
2023-03-22T04:01:40.135Z,4.47
2023-03-22T04:04:30.041Z,4.35
2023-03-22T04:07:20.061Z,4.78
2023-03-22T04:10:09.642Z,4.35
2023-03-22T04:12:57.817Z,4.40
2023-03-22T04:15:45.631Z,4.40
2023-03-22T04:18:33.674Z,5.30
2023-03-22T04:21:21.821Z,4.40
2023-03-22T04:24:12.086Z,4.38
2023-03-22T04:26:59.944Z,5.97
2023-03-22T04:29:50.980Z,5.10
2023-03-22T04:32:39.802Z,4.88
2023-03-22T04:35:27.942Z,4.28
2023-03-22T04:38:16.499Z,4.15
2023-03-22T04:41:05.853Z,4.50
2023-03-22T04:43:54.765Z,4.35
2023-03-22T04:46:43.952Z,4.05
2023-03-22T04:49:32.413Z,4.53
2023-03-22T04:52:20.345Z,4.80
2023-03-22T04:55:09.207Z,4.47
2023-03-22T04:57:58.326Z,4.97
2023-03-22T05:00:46.204Z,4.50
2023-03-22T05:03:34.592Z,4.20
2023-03-22T05:06:22.673Z,4.80
2023-03-22T05:09:11.122Z,4.45
2023-03-22T05:11:59.134Z,4.25
2023-03-22T05:14:48.442Z,4.28
2023-03-22T05:17:36.400Z,4.13
2023-03-22T05:20:24.966Z,4.40
2023-03-22T05:23:13.424Z,3.85
2023-03-22T05:26:02.032Z,4.32
2023-03-22T05:28:49.857Z,4.40
2023-03-22T05:31:40.347Z,4.43
2023-03-22T05:34:35.310Z,3.85
2023-03-22T05:37:23.160Z,4.18
2023-03-22T05:40:11.960Z,3.58
2023-03-22T05:43:00.095Z,4.38
2023-03-22T05:45:48.079Z,3.78
2023-03-22T05:48:37.794Z,4.38
2023-03-22T05:51:27.372Z,3.90
2023-03-22T05:54:15.429Z,5.47
2023-03-22T05:57:03.458Z,5.43
2023-03-22T05:59:53.868Z,6.35
2023-03-22T06:02:41.816Z,6.95
2023-03-22T06:05:32.216Z,5.10
2023-03-22T06:08:20.419Z,7.68
2023-03-22T06:11:08.938Z,6.15
2023-03-22T06:13:56.824Z,8.25
2023-03-22T06:16:44.905Z,6.80
2023-03-22T06:19:32.712Z,6.82
2023-03-22T06:22:22.554Z,8.13
2023-03-22T06:25:11.602Z,6.20
2023-03-22T06:27:59.617Z,8.07
2023-03-22T06:30:47.455Z,7.85
2023-03-22T06:33:35.961Z,8.10
2023-03-22T06:36:23.688Z,8.10
2023-03-22T06:39:13.083Z,8.27
2023-03-22T06:42:01.036Z,5.82
2023-03-22T06:44:48.908Z,6.35
2023-03-22T06:47:36.702Z,8.82
2023-03-22T06:50:24.575Z,8.55
2023-03-22T06:53:12.491Z,8.75
2023-03-22T06:56:01.722Z,7.80
2023-03-22T06:58:51.816Z,8.55
2023-03-22T07:01:40.060Z,11.02
2023-03-22T07:04:28.194Z,8.90
2023-03-22T07:07:16.295Z,8.00
2023-03-22T07:10:04.142Z,8.65
2023-03-22T07:12:53.373Z,9.40
2023-03-22T07:15:41.632Z,8.65
2023-03-22T07:18:31.037Z,7.88
2023-03-22T07:21:18.776Z,8.15
2023-03-22T07:24:09.127Z,7.63
2023-03-22T07:26:57.318Z,8.02
2023-03-22T07:29:46.425Z,5.97
2023-03-22T07:32:34.288Z,7.80
2023-03-22T07:35:23.465Z,6.28
2023-03-22T07:38:13.005Z,6.60
2023-03-22T07:41:00.764Z,7.82
2023-03-22T07:43:55.402Z,5.22
2023-03-22T07:46:48.017Z,6.80
2023-03-22T07:49:37.297Z,5.47
2023-03-22T07:52:25.506Z,6.72
2023-03-22T07:55:15.496Z,6.13
2023-03-22T07:58:07.640Z,5.50
2023-03-22T08:00:55.596Z,5.88
2023-03-22T08:03:45.268Z,6.93
2023-03-22T08:06:33.838Z,6.82
2023-03-22T08:09:21.521Z,7.38
2023-03-22T08:12:09.647Z,6.60
2023-03-22T08:14:57.472Z,6.70
2023-03-22T08:17:45.574Z,7.40
2023-03-22T08:20:35.313Z,6.30
2023-03-22T08:23:38.540Z,5.80
2023-03-22T08:26:28.836Z,6.15
2023-03-22T08:29:16.891Z,7.63
2023-03-22T08:32:05.765Z,6.40
2023-03-22T08:34:53.751Z,5.57
2023-03-22T08:37:43.151Z,5.60
2023-03-22T08:40:31.006Z,5.68
2023-03-22T08:43:18.788Z,6.18
2023-03-22T08:46:07.306Z,6.07
2023-03-22T08:49:03.280Z,6.53
2023-03-22T08:51:51.213Z,5.32
2023-03-22T08:54:40.412Z,5.32
2023-03-22T08:57:29.485Z,5.97
2023-03-22T09:00:19.573Z,5.70
2023-03-22T09:03:07.359Z,8.35
2023-03-22T09:05:59.332Z,5.88
2023-03-22T09:08:52.065Z,4.90
2023-03-22T09:11:42.681Z,5.60
2023-03-22T09:14:30.505Z,11.38
2023-03-22T09:17:21.330Z,7.65
2023-03-22T09:20:15.910Z,5.40
2023-03-22T09:23:03.712Z,6.20
2023-03-22T09:25:52.313Z,6.22
2023-03-22T09:28:41.633Z,4.72
2023-03-22T09:31:29.509Z,5.05
2023-03-22T09:34:17.855Z,4.50
2023-03-22T09:37:06.222Z,3.28
2023-03-22T09:39:54.430Z,2.72
2023-03-22T09:42:46.651Z,2.80
2023-03-22T09:45:39.728Z,2.83
2023-03-22T09:48:32.714Z,5.80
2023-03-22T09:51:38.509Z,3.35
2023-03-22T09:54:36.357Z,4.55
2023-03-22T09:57:32.930Z,2.50
2023-03-22T10:00:27.591Z,2.75
2023-03-22T10:03:31.205Z,3.28
2023-03-22T10:06:21.823Z,2.40
2023-03-22T10:09:15.904Z,2.90
2023-03-22T10:12:14.702Z,2.70
2023-03-22T10:15:11.324Z,2.50
2023-03-22T10:18:01.734Z,4.35
2023-03-22T10:20:59.342Z,2.83
2023-03-22T10:23:52.007Z,3.28
2023-03-22T10:26:43.071Z,3.10
2023-03-22T10:29:35.944Z,3.08
2023-03-22T10:35:16.616Z,3.67
2023-03-22T10:38:09.630Z,5.32
2023-03-22T10:41:00.199Z,3.28
2023-03-22T10:43:53.125Z,4.68
2023-03-22T10:46:42.725Z,4.28
2023-03-22T10:49:34.812Z,2.80
2023-03-22T10:52:34.581Z,2.40
2023-03-22T10:55:26.509Z,2.78
2023-03-22T10:58:16.597Z,2.58
2023-03-22T11:01:09.278Z,2.53
2023-03-22T11:04:00.688Z,6.55
2023-03-22T11:06:54.626Z,8.80
2023-03-22T11:09:43.446Z,3.28
2023-03-22T11:12:32.964Z,3.35
2023-03-22T11:15:31.774Z,2.38
2023-03-22T11:18:20.463Z,2.13
2023-03-22T11:21:11.518Z,2.95
2023-03-22T11:24:03.752Z,3.30
2023-03-22T11:27:05.141Z,2.22
2023-03-22T11:29:58.235Z,1.67
2023-03-22T11:32:46.009Z,4.03
2023-03-22T11:35:33.845Z,2.40
2023-03-22T11:38:29.470Z,3.03
2023-03-22T11:41:25.877Z,5.72
2023-03-22T11:44:17.307Z,3.05
2023-03-22T11:47:09.315Z,4.75
2023-03-22T11:49:57.460Z,2.50
2023-03-22T11:52:48.804Z,3.25
2023-03-22T11:55:37.831Z,1.93
2023-03-22T11:58:43.905Z,1.65
2023-03-22T12:01:41.121Z,2.40
2023-03-22T12:04:36.097Z,2.22
2023-03-22T12:07:26.346Z,2.60
2023-03-22T12:10:21.983Z,2.60
2023-03-22T12:13:16.931Z,2.90
2023-03-22T12:16:08.416Z,3.55
2023-03-22T12:19:06.779Z,2.95
2023-03-22T12:21:58.153Z,3.25
2023-03-22T12:24:46.612Z,2.03
2023-03-22T12:27:38.215Z,3.28
2023-03-22T12:30:29.611Z,2.75
2023-03-22T12:33:23.686Z,4.45
2023-03-22T12:36:17.040Z,4.78
2023-03-22T12:39:10.311Z,2.03
2023-03-22T12:42:02.258Z,2.10
2023-03-22T12:45:04.143Z,2.42
2023-03-22T12:47:57.203Z,2.03
2023-03-22T12:50:48.515Z,1.25
2023-03-22T12:53:42.467Z,1.50
2023-03-22T12:56:38.064Z,1.40
2023-03-22T12:59:30.361Z,1.23
2023-03-22T13:02:25.785Z,1.45
2023-03-22T13:05:14.503Z,1.80
2023-03-22T13:08:05.705Z,1.73
2023-03-22T13:11:03.129Z,1.92
2023-03-22T13:13:52.574Z,1.60
2023-03-22T13:16:53.518Z,1.58
2023-03-22T13:19:54.648Z,1.80
2023-03-22T13:23:04.398Z,1.90
2023-03-22T13:26:06.606Z,2.38
2023-03-22T13:29:01.486Z,1.95
2023-03-22T13:31:58.516Z,1.80
2023-03-22T13:34:50.545Z,1.70
2023-03-22T13:37:47.402Z,1.23
2023-03-22T13:40:37.926Z,2.00
2023-03-22T13:43:34.103Z,2.47
2023-03-22T13:46:45.860Z,2.20
2023-03-22T13:49:46.347Z,2.00
2023-03-22T13:52:41.160Z,1.60
2023-03-22T13:55:58.550Z,2.03
2023-03-22T13:58:56.174Z,2.08
2023-03-22T14:01:51.193Z,1.70
2023-03-22T14:04:45.476Z,1.65
2023-03-22T14:07:45.608Z,1.70
2023-03-22T14:10:40.169Z,1.48
2023-03-22T14:13:34.017Z,1.45
2023-03-22T14:16:30.344Z,1.50
2023-03-22T14:19:23.226Z,1.75
